Thunder radar more information blitzortung!


Radar de pluja more information rain snow radar


Visita la nostra xarxa de llocs de meteo:

Template documentation
and downloads

And another site



No particular awareness of the weather is required.    There are no Weather-warnings

Pagina Historial Weather Underground text

Diari Resum Desembre 12, 2017 Unitats:  Mètric    Imperial   Tant
« Previous Dia
SegĂźent Dia »
Diari Setmana Mensual Anual Personalitzada
  Maxima: Minima: Media:
Temperatura: -17.8 °C -17.1 °C -14.3 °C
Punt de rosada: -17.8 °C -19.9 °C -18.2 °C
Humitat: Humidity % 54 % 61 %
Wind Speed: 0 km/h 0 km/h 4 km/h
RĂ fegues de vent: 0 km/h - -
Vent:- - South
Pression baro: 0 hPa 33924.3 hPa -
Precipitacions: 0 mm    
Historical Graphs
 
 
Dades de taula per Desembre 12, 2017
Temps Temperatura Punt de rosada Pression baro Vent Wind Speed RĂ fegues de vent Humitat Rainfall Rate (Hourly)
-17.8 °C -17.8 °C 0 hPa Calm     Humidity % 0 mm
00:00 -15.2 °C -18.7 °C 34097 hPa West 2.6 km/h 5.1 km/h 64 % 0 mm
00:01 -13.7 °C -18.2 °C 33924.3 hPa WSW 15 km/h 15 km/h 57 % 0 mm
00:06 -13.6 °C -18.1 °C 33924.3 hPa West 6.3 km/h 6.3 km/h 57 % 0 mm
00:10 -15.2 °C -18.7 °C 34097 hPa WNW 5.1 km/h 5.1 km/h 64 % 0 mm
00:20 -15.2 °C -18.7 °C 34130.9 hPa West 2.6 km/h 7.7 km/h 64 % 0 mm
00:30 -15.1 °C -18.5 °C 34130.9 hPa West 5.1 km/h 5.1 km/h 64 % 0 mm
00:40 -15 °C -18.5 °C 34130.9 hPa West 5.1 km/h 7.7 km/h 64 % 0 mm
00:50 -14.9 °C -18.4 °C 34130.9 hPa West 5.1 km/h 10.3 km/h 64 % 0 mm
01:00 -14.8 °C -18.3 °C 34130.9 hPa West 2.6 km/h 12.9 km/h 64 % 0 mm
01:20 -14.7 °C -18.3 °C 34164.7 hPa West 2.6 km/h 5.1 km/h 63 % 0 mm
01:30 -14.8 °C -18.4 °C 34164.7 hPa NW 2.6 km/h 5.1 km/h 63 % 0 mm
01:40 -14.9 °C -18.4 °C 34164.7 hPa NNE 2.6 km/h 2.6 km/h 64 % 0 mm
02:00 -14.8 °C -18.3 °C 34198.6 hPa NE 5.1 km/h 10.3 km/h 64 % 0 mm
02:20 -14.9 °C -18.4 °C 34198.6 hPa NE 7.7 km/h 7.7 km/h 64 % 0 mm
02:30 -14.9 °C -18.4 °C 34198.6 hPa NE 2.6 km/h 10.3 km/h 64 % 0 mm
02:40 -15 °C -18.5 °C 34198.6 hPa Calm     64 % 0 mm
02:50 -15 °C -18.4 °C 34198.6 hPa West 2.6 km/h 2.6 km/h 65 % 0 mm
03:10 -14.9 °C -18.3 °C 34222.3 hPa Calm     65 % 0 mm
03:20 -14.9 °C -18.2 °C 34256.2 hPa North 2.6 km/h 7.7 km/h 65 % 0 mm
03:30 -14.9 °C -18.2 °C 34256.2 hPa North 2.6 km/h 5.1 km/h 65 % 0 mm
03:40 -14.8 °C -18.2 °C 34256.2 hPa Calm   5.1 km/h 65 % 0 mm
03:50 -14.7 °C -18 °C 34256.2 hPa North 5.1 km/h 10.3 km/h 65 % 0 mm
04:00 -14.6 °C -17.9 °C 34256.2 hPa NNW 2.6 km/h 5.1 km/h 65 % 0 mm
04:30 -14.3 °C -17.7 °C 34256.2 hPa Calm   2.6 km/h 65 % 0 mm
07:10 -12.7 °C -17.1 °C 34327.3 hPa ENE 5.1 km/h 10.3 km/h 58 % 0 mm
07:20 -12.7 °C -17.1 °C 34327.3 hPa East 2.6 km/h 5.1 km/h 58 % 0 mm
07:30 -12.5 °C -16.7 °C 34327.3 hPa East 5.1 km/h 7.7 km/h 59 % 0 mm
07:40 -12.4 °C -16.9 °C 34327.3 hPa ESE 7.7 km/h 7.7 km/h 57 % 0 mm
07:50 -12.4 °C -16.9 °C 34327.3 hPa East 5.1 km/h 7.7 km/h 57 % 0 mm
08:10 -12.3 °C -16.7 °C 34327.3 hPa NW 5.1 km/h 10.3 km/h 58 % 0 mm
08:20 -12.4 °C -17.1 °C 34327.3 hPa West 7.7 km/h 15.6 km/h 56 % 0 mm
08:30 -12.2 °C -16.8 °C 34327.3 hPa West 5.1 km/h 10.3 km/h 56 % 0 mm
08:40 -12.1 °C -16.9 °C 34327.3 hPa WNW 5.1 km/h 7.7 km/h 55 % 0 mm
08:50 -12 °C -16.8 °C 34327.3 hPa West 5.1 km/h 7.7 km/h 55 % 0 mm
09:10 -11.7 °C -16.7 °C 34327.3 hPa WSW 2.6 km/h 10.3 km/h 54 % 0 mm
09:20 -11.8 °C -16.8 °C 34361.1 hPa SW 5.1 km/h 7.7 km/h 54 % 0 mm
09:25 -11.9 °C -16.9 °C 34361.1 hPa WSW 2.6 km/h 7.7 km/h 54 % 0 mm
09:45 -12.1 °C -17 °C 34361.1 hPa West 2.6 km/h 5.1 km/h 54 % 0 mm
09:55 -12.3 °C -17.2 °C 34361.1 hPa NNE 2.6 km/h 7.7 km/h 54 % 0 mm
10:42 -14.2 °C -17.7 °C 34293.4 hPa East 6 km/h 6 km/h 64 % 0 mm
10:47 -14.2 °C -17.7 °C 34327.3 hPa WNW 3.1 km/h   64 % 0 mm
10:57 -14.3 °C -17.8 °C 34327.3 hPa NE 15 km/h 15 km/h 64 % 0 mm
11:02 -14.3 °C -17.8 °C 34327.3 hPa NNE 11.9 km/h 11.9 km/h 64 % 0 mm
11:07 -14.2 °C -17.7 °C 34327.3 hPa East 6 km/h 6 km/h 64 % 0 mm
11:12 -14.2 °C -17.7 °C 34327.3 hPa NNE 6.3 km/h 6.3 km/h 64 % 0 mm
11:17 -14.2 °C -17.7 °C 34327.3 hPa NE 11.9 km/h 11.9 km/h 64 % 0 mm
11:22 -13.9 °C -17.4 °C 34327.3 hPa NNW 9 km/h 9 km/h 64 % 0 mm
11:32 -13.7 °C -17.3 °C 34327.3 hPa ESE 9 km/h 9 km/h 63 % 0 mm
11:37 -13.5 °C -17.2 °C 34327.3 hPa North 6 km/h 6 km/h 63 % 0 mm
11:42 -13.3 °C -17 °C 34327.3 hPa ENE 11.9 km/h 11.9 km/h 63 % 0 mm
11:47 -13.2 °C -17.1 °C 34327.3 hPa North 6 km/h 8 km/h 62 % 0 mm
11:52 -13.1 °C -16.9 °C 34327.3 hPa North 6 km/h 6 km/h 62 % 0 mm
11:57 -13.2 °C -17 °C 34327.3 hPa WNW 6 km/h 6 km/h 62 % 0 mm
12:02 -13.2 °C -17.1 °C 34327.3 hPa NNW 3.1 km/h 5.1 km/h 61 % 0 mm
12:17 -13.1 °C -17 °C 34327.3 hPa North 4.2 km/h 4.2 km/h 61 % 0 mm
12:22 -13.2 °C -17.3 °C 34327.3 hPa NNE 11.9 km/h 11.9 km/h 60 % 0 mm
12:27 -13.1 °C -17 °C 34327.3 hPa NE 6 km/h 6.3 km/h 61 % 0 mm
12:32 -12.9 °C -17 °C 34327.3 hPa NE 9 km/h 9 km/h 60 % 0 mm
12:37 -12.8 °C -16.9 °C 34327.3 hPa ENE 17.9 km/h 17.9 km/h 60 % 0 mm
12:42 -12.8 °C -16.8 °C 34327.3 hPa NE 8.5 km/h 8.5 km/h 60 % 0 mm
12:43 -12.8 °C -16.8 °C 34327.3 hPa NE 8.5 km/h 8.5 km/h 60 % 0 mm
12:48 -12.8 °C -16.8 °C 34327.3 hPa NE 8.5 km/h 8.5 km/h 60 % 0 mm
13:45 -12.8 °C -16.8 °C 34327.3 hPa NE 8.5 km/h 8.5 km/h 60 % 0 mm
16:10 -12.8 °C -16.8 °C 34327.3 hPa North 6 km/h   60 % 0 mm
16:15 -12.4 °C -17.3 °C 34395 hPa NNE 6.3 km/h 6.3 km/h 54 % 0 mm
16:30 -12.4 °C -17.4 °C 34395 hPa East 4.2 km/h 4.2 km/h 54 % 0 mm
16:35 -12.4 °C -17.4 °C 34395 hPa WNW 3.1 km/h   54 % 0 mm
16:40 -12.4 °C -17.4 °C 34395 hPa NNW 6 km/h 6 km/h 54 % 0 mm
16:45 -12.4 °C -17.4 °C 34395 hPa Calm     54 % 0 mm
16:50 -12.5 °C -17.4 °C 34395 hPa NNW 6.3 km/h 6.3 km/h 54 % 0 mm
16:55 -12.6 °C -17.4 °C 34395 hPa North 6.8 km/h   54 % 0 mm
17:00 -12.6 °C -17.6 °C 34395 hPa NNW 3.1 km/h 3.1 km/h 54 % 0 mm
17:05 -12.7 °C -17.6 °C 34395 hPa NNE 3.1 km/h 3.1 km/h 54 % 0 mm
17:10 -12.7 °C -17.6 °C 34395 hPa ENE 6 km/h 6 km/h 54 % 0 mm
17:15 -12.8 °C -17.6 °C 34395 hPa ENE 3.1 km/h   55 % 0 mm
17:20 -12.9 °C -17.7 °C 34395 hPa East 6 km/h   55 % 0 mm
17:25 -13 °C -17.7 °C 34395 hPa Calm     55 % 0 mm
17:30 -13.1 °C -17.8 °C 34395 hPa WNW 3.1 km/h   55 % 0 mm
17:40 -13.2 °C -17.9 °C 34395 hPa North 3.1 km/h 3.1 km/h 55 % 0 mm
17:55 -13.4 °C -18 °C 34395 hPa WSW 3.1 km/h 3.1 km/h 56 % 0 mm
18:05 -13.6 °C -18.1 °C 34395 hPa Calm     56 % 0 mm
18:11 -13.6 °C -18.2 °C 34395 hPa WNW 3.7 km/h   56 % 0 mm
18:15 -16.3 °C -19.4 °C 34601.5 hPa SSW 2.6 km/h 5.1 km/h 66 % 0 mm
18:16 -13.7 °C -18.2 °C 34428.8 hPa West 6 km/h 6 km/h 56 % 0 mm
18:26 -13.7 °C -18.2 °C 34428.8 hPa Calm     57 % 0 mm
18:31 -13.7 °C -18.2 °C 34462.7 hPa West 3.1 km/h 3.1 km/h 57 % 0 mm
18:35 -16.4 °C -19.6 °C 34567.7 hPa WSW 2.6 km/h 5.1 km/h 66 % 0 mm
18:36 -13.7 °C -18.2 °C 34462.7 hPa Calm     57 % 0 mm
18:41 -13.8 °C -18.2 °C 34462.7 hPa Calm     57 % 0 mm
18:46 -13.8 °C -18.2 °C 34462.7 hPa West 3.7 km/h 3.7 km/h 57 % 0 mm
18:51 -13.9 °C -18.3 °C 34462.7 hPa WSW 3.1 km/h 3.1 km/h 57 % 0 mm
18:55 -16.4 °C -19.5 °C 34601.5 hPa West 2.6 km/h 2.6 km/h 67 % 0 mm
18:56 -13.9 °C -18.3 °C 34462.7 hPa Calm     57 % 0 mm
19:06 -13.9 °C -18.4 °C 34462.7 hPa NW 3.1 km/h 3.7 km/h 57 % 0 mm
19:11 -14 °C -18.4 °C 34462.7 hPa WSW 6.3 km/h 6.3 km/h 57 % 0 mm
19:15 -16.3 °C -19.3 °C 34601.5 hPa Calm   2.6 km/h 68 % 0 mm
19:16 -14.1 °C -18.4 °C 34462.7 hPa SW 3.1 km/h   57 % 0 mm
19:25 -16.6 °C -19.5 °C 34601.5 hPa Calm   2.6 km/h 68 % 0 mm
19:26 -14.3 °C -18.6 °C 34462.7 hPa SW 6 km/h 6 km/h 58 % 0 mm
19:31 -14.3 °C -18.6 °C 34462.7 hPa SW 6 km/h 6 km/h 58 % 0 mm
19:36 -14.4 °C -18.7 °C 34462.7 hPa SW 6 km/h 6 km/h 58 % 0 mm
19:41 -14.5 °C -18.7 °C 34462.7 hPa SW 6.3 km/h 6.3 km/h 58 % 0 mm
19:45 -16.8 °C -19.7 °C 34601.5 hPa West 2.6 km/h 5.1 km/h 68 % 0 mm
19:56 -14.5 °C -18.6 °C 34462.7 hPa Calm     59 % 0 mm
20:05 -16.7 °C -19.7 °C 34601.5 hPa Calm   5.1 km/h 68 % 0 mm
20:06 -14.4 °C -18.7 °C 34496.6 hPa NNW 3.1 km/h 3.1 km/h 58 % 0 mm
20:15 -16.7 °C -19.6 °C 34601.5 hPa Calm   5.1 km/h 69 % 0 mm
20:16 -14.4 °C -18.7 °C 34496.6 hPa Calm     58 % 0 mm
20:21 -14.4 °C -18.6 °C 34496.6 hPa Calm     59 % 0 mm
20:31 -14.4 °C -18.6 °C 34496.6 hPa Calm     59 % 0 mm
20:35 -16.5 °C -19.3 °C 34601.5 hPa NW 5.1 km/h 7.7 km/h 69 % 0 mm
20:36 -14.6 °C -18.7 °C 34496.6 hPa West 4.2 km/h 4.2 km/h 59 % 0 mm
20:41 -14.5 °C -18.5 °C 34496.6 hPa West 3.1 km/h 3.1 km/h 60 % 0 mm
20:46 -14.5 °C -18.5 °C 34496.6 hPa Calm     60 % 0 mm
20:51 -14.5 °C -18.5 °C 34496.6 hPa West 6 km/h 6 km/h 60 % 0 mm
20:55 -16.7 °C -19.6 °C 34601.5 hPa SW 2.6 km/h 7.7 km/h 68 % 0 mm
21:05 -14.6 °C -18.6 °C 34496.6 hPa NE 6 km/h   60 % 0 mm
21:10 -14.7 °C -18.5 °C 34496.6 hPa Calm     61 % 0 mm
21:15 -14.6 °C -18.4 °C 34496.6 hPa NE 9 km/h 9 km/h 61 % 0 mm
21:25 -16.5 °C -19.3 °C 34601.5 hPa NW 2.6 km/h 5.1 km/h 69 % 0 mm
21:30 -14.8 °C -18.6 °C 34496.6 hPa North 3.1 km/h   61 % 0 mm
21:35 -16.6 °C -19.4 °C 34601.5 hPa NW 2.6 km/h 2.6 km/h 69 % 0 mm
21:40 -14.9 °C -18.8 °C 34496.6 hPa Calm     61 % 0 mm
21:45 -15.1 °C -18.9 °C 34496.6 hPa Calm     61 % 0 mm
21:55 -15.4 °C -19.2 °C 34496.6 hPa WSW 6.3 km/h 6.3 km/h 61 % 0 mm
22:00 -15.3 °C -19.1 °C 34533.8 hPa WSW 6.3 km/h 6.3 km/h 61 % 0 mm
22:05 -16.6 °C -19.5 °C 34601.5 hPa NNE 2.6 km/h 5.1 km/h 68 % 0 mm
22:10 -15.4 °C -19.1 °C 34533.8 hPa SW 6 km/h   62 % 0 mm
22:15 -15.4 °C -19.1 °C 34533.8 hPa Calm     62 % 0 mm
22:20 -15.5 °C -19.1 °C 34533.8 hPa ENE 3.1 km/h 3.7 km/h 63 % 0 mm
22:25 -15.6 °C -19.1 °C 34533.8 hPa Calm     63 % 0 mm
22:30 -15.6 °C -19.1 °C 34567.7 hPa Calm     63 % 0 mm
22:35 -15.6 °C -19.1 °C 34567.7 hPa ENE 3.1 km/h   64 % 0 mm
22:45 -15.6 °C -19.1 °C 34496.6 hPa Calm     64 % 0 mm
22:50 -15.7 °C -19.1 °C 34496.6 hPa Calm     64 % 0 mm
22:55 -15.7 °C -19.2 °C 34496.6 hPa NNE 6 km/h 6 km/h 64 % 0 mm
23:00 -15.7 °C -19 °C 34496.6 hPa NNE 6 km/h 6 km/h 65 % 0 mm
23:10 -15.7 °C -19 °C 34496.6 hPa Calm     65 % 0 mm
23:15 -15.7 °C -19.2 °C 34533.8 hPa NW 3.1 km/h 3.1 km/h 64 % 0 mm
23:20 -15.7 °C -19.1 °C 34533.8 hPa WNW 3.1 km/h   65 % 0 mm
23:25 -15.8 °C -19.1 °C 34533.8 hPa Calm     65 % 0 mm
23:30 -16 °C -19.3 °C 34567.7 hPa WSW 3.7 km/h   65 % 0 mm
23:31 -16 °C -19.3 °C 34567.7 hPa WSW 4.2 km/h 4.2 km/h 65 % 0 mm
23:35 -17 °C -19.9 °C 34601.5 hPa Calm   2.6 km/h 68 % 0 mm
23:41 -16.1 °C -19.4 °C 34601.5 hPa West 3.1 km/h 3.1 km/h 65 % 0 mm
23:45 -17.1 °C -19.9 °C 34601.5 hPa NW 2.6 km/h 5.1 km/h 68 % 0 mm
23:56 -16.1 °C -19.3 °C 34601.5 hPa Calm     66 % 0 mm
Meteo Sesrovires
Elogis d' Weather Underground - 2 mb

Guio original per  Jim McMurry - jmcmurry@mwt.net Adaptat per a la plantilla per  Wim van der Kuil - Leuven-Template.eu

Trobareu la nostra informacio del temps tambe a:

Weather Underground

AWEKAS